sensor_id;sensor_type;location;lat;lon;timestamp;temperature;humidity
652;DHT22;310;48.490;9.200;2023-04-03T00:02:12;9.10;33.20
652;DHT22;310;48.490;9.200;2023-04-03T00:04:38;8.80;34.70
652;DHT22;310;48.490;9.200;2023-04-03T00:07:03;9.10;34.60
652;DHT22;310;48.490;9.200;2023-04-03T00:09:29;9.40;33.00
652;DHT22;310;48.490;9.200;2023-04-03T00:11:55;9.00;33.40
652;DHT22;310;48.490;9.200;2023-04-03T00:14:20;9.20;33.80
652;DHT22;310;48.490;9.200;2023-04-03T00:16:46;9.00;33.80
652;DHT22;310;48.490;9.200;2023-04-03T00:19:12;9.10;33.60
652;DHT22;310;48.490;9.200;2023-04-03T00:21:38;9.20;34.10
652;DHT22;310;48.490;9.200;2023-04-03T00:24:04;9.00;33.40
652;DHT22;310;48.490;9.200;2023-04-03T00:26:30;9.00;34.30
652;DHT22;310;48.490;9.200;2023-04-03T00:28:56;9.20;34.50
652;DHT22;310;48.490;9.200;2023-04-03T00:31:21;9.50;33.40
652;DHT22;310;48.490;9.200;2023-04-03T00:33:47;9.60;33.00
652;DHT22;310;48.490;9.200;2023-04-03T00:36:12;9.60;33.00
652;DHT22;310;48.490;9.200;2023-04-03T00:38:40;9.80;33.10
652;DHT22;310;48.490;9.200;2023-04-03T00:41:06;9.80;33.10
652;DHT22;310;48.490;9.200;2023-04-03T00:43:32;9.80;32.80
652;DHT22;310;48.490;9.200;2023-04-03T00:45:59;9.50;34.40
652;DHT22;310;48.490;9.200;2023-04-03T00:48:40;9.00;32.80
652;DHT22;310;48.490;9.200;2023-04-03T00:51:09;8.70;34.40
652;DHT22;310;48.490;9.200;2023-04-03T00:53:43;8.60;35.30
652;DHT22;310;48.490;9.200;2023-04-03T00:56:12;9.00;36.00
652;DHT22;310;48.490;9.200;2023-04-03T00:58:49;9.20;34.10
652;DHT22;310;48.490;9.200;2023-04-03T01:01:20;9.40;33.00
652;DHT22;310;48.490;9.200;2023-04-03T01:03:47;9.40;33.70
652;DHT22;310;48.490;9.200;2023-04-03T01:06:14;9.50;33.30
652;DHT22;310;48.490;9.200;2023-04-03T01:08:41;9.60;33.00
652;DHT22;310;48.490;9.200;2023-04-03T01:11:07;9.60;33.00
652;DHT22;310;48.490;9.200;2023-04-03T01:13:33;9.60;33.00
652;DHT22;310;48.490;9.200;2023-04-03T01:16:03;9.60;32.70
652;DHT22;310;48.490;9.200;2023-04-03T01:18:30;9.60;33.00
652;DHT22;310;48.490;9.200;2023-04-03T01:26:15;9.30;32.70
652;DHT22;310;48.490;9.200;2023-04-03T01:28:41;9.30;32.70
652;DHT22;310;48.490;9.200;2023-04-03T01:31:27;9.10;35.10
652;DHT22;310;48.490;9.200;2023-04-03T01:33:55;9.00;33.60
652;DHT22;310;48.490;9.200;2023-04-03T01:36:27;9.00;33.10
652;DHT22;310;48.490;9.200;2023-04-03T01:38:54;8.70;34.30
652;DHT22;310;48.490;9.200;2023-04-03T01:41:20;8.90;35.40
652;DHT22;310;48.490;9.200;2023-04-03T01:43:47;9.20;33.10
652;DHT22;310;48.490;9.200;2023-04-03T01:46:13;9.10;33.30
652;DHT22;310;48.490;9.200;2023-04-03T01:48:39;9.00;33.90
652;DHT22;310;48.490;9.200;2023-04-03T01:51:05;8.90;33.40
652;DHT22;310;48.490;9.200;2023-04-03T01:53:31;9.00;33.90
652;DHT22;310;48.490;9.200;2023-04-03T01:55:56;9.00;34.10
652;DHT22;310;48.490;9.200;2023-04-03T01:58:22;9.20;34.40
652;DHT22;310;48.490;9.200;2023-04-03T02:00:48;8.90;32.90
652;DHT22;310;48.490;9.200;2023-04-03T02:03:13;8.80;34.50
652;DHT22;310;48.490;9.200;2023-04-03T02:05:40;8.50;34.70
652;DHT22;310;48.490;9.200;2023-04-03T02:08:06;8.60;34.60
652;DHT22;310;48.490;9.200;2023-04-03T02:10:32;8.80;34.20
652;DHT22;310;48.490;9.200;2023-04-03T02:12:57;8.80;32.80
652;DHT22;310;48.490;9.200;2023-04-03T02:15:23;8.70;33.80
652;DHT22;310;48.490;9.200;2023-04-03T02:17:49;8.50;34.90
652;DHT22;310;48.490;9.200;2023-04-03T02:20:14;8.60;35.20
652;DHT22;310;48.490;9.200;2023-04-03T02:22:40;9.00;34.00
652;DHT22;310;48.490;9.200;2023-04-03T02:25:06;8.70;33.90
652;DHT22;310;48.490;9.200;2023-04-03T02:27:31;8.90;34.20
652;DHT22;310;48.490;9.200;2023-04-03T02:29:57;9.00;33.60
652;DHT22;310;48.490;9.200;2023-04-03T02:32:23;9.20;32.60
652;DHT22;310;48.490;9.200;2023-04-03T02:34:48;8.90;33.10
652;DHT22;310;48.490;9.200;2023-04-03T02:37:14;8.70;33.70
652;DHT22;310;48.490;9.200;2023-04-03T02:39:40;8.80;35.00
652;DHT22;310;48.490;9.200;2023-04-03T02:42:06;8.70;34.40
652;DHT22;310;48.490;9.200;2023-04-03T02:44:32;8.60;33.50
652;DHT22;310;48.490;9.200;2023-04-03T02:46:58;8.50;34.50
652;DHT22;310;48.490;9.200;2023-04-03T02:49:23;8.30;33.60
652;DHT22;310;48.490;9.200;2023-04-03T02:51:49;8.50;34.80
652;DHT22;310;48.490;9.200;2023-04-03T02:54:16;8.70;34.70
652;DHT22;310;48.490;9.200;2023-04-03T02:56:41;9.00;33.50
652;DHT22;310;48.490;9.200;2023-04-03T02:59:07;8.80;33.20
652;DHT22;310;48.490;9.200;2023-04-03T03:01:33;8.80;32.80
652;DHT22;310;48.490;9.200;2023-04-03T03:03:59;8.90;33.20
652;DHT22;310;48.490;9.200;2023-04-03T03:06:26;8.90;32.40
652;DHT22;310;48.490;9.200;2023-04-03T03:08:52;9.00;32.60
652;DHT22;310;48.490;9.200;2023-04-03T03:11:18;8.70;32.30
652;DHT22;310;48.490;9.200;2023-04-03T03:13:43;8.50;33.60
652;DHT22;310;48.490;9.200;2023-04-03T03:16:09;8.70;32.60
652;DHT22;310;48.490;9.200;2023-04-03T03:18:35;8.80;33.00
652;DHT22;310;48.490;9.200;2023-04-03T03:21:01;8.70;34.00
652;DHT22;310;48.490;9.200;2023-04-03T03:23:28;8.40;32.90
652;DHT22;310;48.490;9.200;2023-04-03T03:25:59;8.60;33.00
652;DHT22;310;48.490;9.200;2023-04-03T03:28:25;8.70;32.20
652;DHT22;310;48.490;9.200;2023-04-03T03:30:51;8.80;32.60
652;DHT22;310;48.490;9.200;2023-04-03T03:33:17;9.00;33.20
652;DHT22;310;48.490;9.200;2023-04-03T03:35:43;8.90;32.40
652;DHT22;310;48.490;9.200;2023-04-03T03:38:09;8.90;32.40
652;DHT22;310;48.490;9.200;2023-04-03T03:40:35;8.90;33.40
652;DHT22;310;48.490;9.200;2023-04-03T03:43:01;8.80;33.30
652;DHT22;310;48.490;9.200;2023-04-03T03:45:26;8.80;32.30
652;DHT22;310;48.490;9.200;2023-04-03T03:47:52;8.80;33.90
652;DHT22;310;48.490;9.200;2023-04-03T03:50:18;8.80;32.60
652;DHT22;310;48.490;9.200;2023-04-03T03:52:43;8.70;32.60
652;DHT22;310;48.490;9.200;2023-04-03T03:55:09;8.60;33.00
652;DHT22;310;48.490;9.200;2023-04-03T03:57:35;8.70;33.60
652;DHT22;310;48.490;9.200;2023-04-03T04:00:02;9.10;32.10
652;DHT22;310;48.490;9.200;2023-04-03T04:02:28;8.70;32.30
652;DHT22;310;48.490;9.200;2023-04-03T04:04:54;8.60;33.30
652;DHT22;310;48.490;9.200;2023-04-03T04:07:19;8.80;32.30
652;DHT22;310;48.490;9.200;2023-04-03T04:09:45;8.70;32.30
652;DHT22;310;48.490;9.200;2023-04-03T04:12:11;8.70;33.00
652;DHT22;310;48.490;9.200;2023-04-03T04:14:36;8.80;32.70
652;DHT22;310;48.490;9.200;2023-04-03T04:17:02;8.80;33.50
652;DHT22;310;48.490;9.200;2023-04-03T04:19:28;8.80;33.40
652;DHT22;310;48.490;9.200;2023-04-03T04:21:53;8.90;32.40
652;DHT22;310;48.490;9.200;2023-04-03T04:24:19;8.60;32.80
652;DHT22;310;48.490;9.200;2023-04-03T04:26:45;8.50;33.70
652;DHT22;310;48.490;9.200;2023-04-03T04:29:10;8.80;32.80
652;DHT22;310;48.490;9.200;2023-04-03T04:31:36;9.10;32.50
652;DHT22;310;48.490;9.200;2023-04-03T04:34:02;9.20;31.00
652;DHT22;310;48.490;9.200;2023-04-03T04:36:28;8.90;31.40
652;DHT22;310;48.490;9.200;2023-04-03T04:38:53;8.90;31.30
652;DHT22;310;48.490;9.200;2023-04-03T04:41:22;8.80;32.30
652;DHT22;310;48.490;9.200;2023-04-03T04:43:49;8.70;31.40
652;DHT22;310;48.490;9.200;2023-04-03T04:46:14;8.80;31.60
652;DHT22;310;48.490;9.200;2023-04-03T04:48:40;8.70;31.30
652;DHT22;310;48.490;9.200;2023-04-03T04:51:06;8.90;32.40
652;DHT22;310;48.490;9.200;2023-04-03T04:53:32;8.80;31.70
652;DHT22;310;48.490;9.200;2023-04-03T04:55:58;8.90;30.90
652;DHT22;310;48.490;9.200;2023-04-03T04:58:24;9.00;32.40
652;DHT22;310;48.490;9.200;2023-04-03T05:00:49;9.10;30.10
652;DHT22;310;48.490;9.200;2023-04-03T05:03:15;9.00;30.00
652;DHT22;310;48.490;9.200;2023-04-03T05:05:41;8.80;30.40
652;DHT22;310;48.490;9.200;2023-04-03T05:08:06;8.90;29.90
652;DHT22;310;48.490;9.200;2023-04-03T05:10:33;8.50;30.90
652;DHT22;310;48.490;9.200;2023-04-03T05:12:59;8.10;31.70
652;DHT22;310;48.490;9.200;2023-04-03T05:15:25;8.30;31.40
652;DHT22;310;48.490;9.200;2023-04-03T05:17:50;8.60;30.40
652;DHT22;310;48.490;9.200;2023-04-03T05:20:16;8.60;30.90
652;DHT22;310;48.490;9.200;2023-04-03T05:22:42;8.90;32.40
652;DHT22;310;48.490;9.200;2023-04-03T05:25:08;8.70;31.10
652;DHT22;310;48.490;9.200;2023-04-03T05:27:34;8.40;31.00
652;DHT22;310;48.490;9.200;2023-04-03T05:30:00;8.60;32.10
652;DHT22;310;48.490;9.200;2023-04-03T05:32:25;8.30;31.30
652;DHT22;310;48.490;9.200;2023-04-03T05:34:53;8.40;31.00
652;DHT22;310;48.490;9.200;2023-04-03T05:37:19;8.60;31.30
652;DHT22;310;48.490;9.200;2023-04-03T05:39:46;8.70;30.40
652;DHT22;310;48.490;9.200;2023-04-03T05:42:11;8.90;31.00
652;DHT22;310;48.490;9.200;2023-04-03T05:44:38;8.90;28.70
652;DHT22;310;48.490;9.200;2023-04-03T05:47:03;8.60;28.60
652;DHT22;310;48.490;9.200;2023-04-03T05:49:31;8.70;28.50
652;DHT22;310;48.490;9.200;2023-04-03T05:51:56;8.70;28.60
652;DHT22;310;48.490;9.200;2023-04-03T05:54:25;8.90;29.40
652;DHT22;310;48.490;9.200;2023-04-03T05:56:51;9.00;28.60
652;DHT22;310;48.490;9.200;2023-04-03T05:59:18;9.00;27.40
652;DHT22;310;48.490;9.200;2023-04-03T06:01:44;9.10;27.40
652;DHT22;310;48.490;9.200;2023-04-03T06:04:10;9.20;27.00
652;DHT22;310;48.490;9.200;2023-04-03T06:06:50;9.00;27.60
652;DHT22;310;48.490;9.200;2023-04-03T06:09:21;9.20;27.60
652;DHT22;310;48.490;9.200;2023-04-03T06:11:47;9.20;27.40
652;DHT22;310;48.490;9.200;2023-04-03T06:14:13;9.10;28.50
652;DHT22;310;48.490;9.200;2023-04-03T06:16:39;9.30;27.80
652;DHT22;310;48.490;9.200;2023-04-03T06:19:06;9.50;25.90
652;DHT22;310;48.490;9.200;2023-04-03T06:21:32;9.40;26.90
652;DHT22;310;48.490;9.200;2023-04-03T06:23:58;9.60;27.00
652;DHT22;310;48.490;9.200;2023-04-03T06:26:24;9.40;28.00
652;DHT22;310;48.490;9.200;2023-04-03T06:28:50;9.50;28.10
652;DHT22;310;48.490;9.200;2023-04-03T06:31:15;9.40;27.50
652;DHT22;310;48.490;9.200;2023-04-03T06:33:42;9.00;27.20
652;DHT22;310;48.490;9.200;2023-04-03T06:36:09;9.20;27.40
652;DHT22;310;48.490;9.200;2023-04-03T06:38:35;9.20;27.90
652;DHT22;310;48.490;9.200;2023-04-03T06:41:01;9.50;27.60
652;DHT22;310;48.490;9.200;2023-04-03T06:43:26;9.40;26.70
652;DHT22;310;48.490;9.200;2023-04-03T06:45:53;9.20;27.40
652;DHT22;310;48.490;9.200;2023-04-03T06:48:19;9.10;27.20
652;DHT22;310;48.490;9.200;2023-04-03T06:50:44;8.90;27.60
652;DHT22;310;48.490;9.200;2023-04-03T06:53:10;9.00;28.50
652;DHT22;310;48.490;9.200;2023-04-03T06:55:37;9.00;27.80
652;DHT22;310;48.490;9.200;2023-04-03T06:58:03;9.00;27.80
652;DHT22;310;48.490;9.200;2023-04-03T07:00:29;8.90;28.00
652;DHT22;310;48.490;9.200;2023-04-03T07:02:55;8.60;29.60
652;DHT22;310;48.490;9.200;2023-04-03T07:05:23;8.90;28.10
652;DHT22;310;48.490;9.200;2023-04-03T07:07:48;9.10;28.20
652;DHT22;310;48.490;9.200;2023-04-03T07:10:16;9.10;28.10
652;DHT22;310;48.490;9.200;2023-04-03T07:12:41;9.40;27.10
652;DHT22;310;48.490;9.200;2023-04-03T07:15:08;9.70;27.60
652;DHT22;310;48.490;9.200;2023-04-03T07:17:34;9.90;28.70
652;DHT22;310;48.490;9.200;2023-04-03T07:20:01;9.80;27.60
652;DHT22;310;48.490;9.200;2023-04-03T07:22:27;9.80;26.70
652;DHT22;310;48.490;9.200;2023-04-03T07:24:53;10.00;25.50
652;DHT22;310;48.490;9.200;2023-04-03T07:27:19;9.90;27.30
652;DHT22;310;48.490;9.200;2023-04-03T07:29:45;9.80;27.00
652;DHT22;310;48.490;9.200;2023-04-03T07:32:14;10.00;26.80
652;DHT22;310;48.490;9.200;2023-04-03T07:34:40;9.80;26.60
652;DHT22;310;48.490;9.200;2023-04-03T07:37:05;9.80;26.50
652;DHT22;310;48.490;9.200;2023-04-03T07:39:32;9.90;26.20
652;DHT22;310;48.490;9.200;2023-04-03T07:41:58;10.00;25.90
652;DHT22;310;48.490;9.200;2023-04-03T07:44:24;9.80;26.80
652;DHT22;310;48.490;9.200;2023-04-03T07:46:50;10.00;25.80
652;DHT22;310;48.490;9.200;2023-04-03T07:49:16;10.90;25.10
652;DHT22;310;48.490;9.200;2023-04-03T07:51:43;10.70;24.80
652;DHT22;310;48.490;9.200;2023-04-03T07:54:09;10.50;25.20
652;DHT22;310;48.490;9.200;2023-04-03T07:56:35;10.50;25.80
652;DHT22;310;48.490;9.200;2023-04-03T07:59:01;10.30;25.10
652;DHT22;310;48.490;9.200;2023-04-03T08:01:26;10.20;25.20
652;DHT22;310;48.490;9.200;2023-04-03T08:03:52;10.10;26.60
652;DHT22;310;48.490;9.200;2023-04-03T08:06:18;10.00;25.10
652;DHT22;310;48.490;9.200;2023-04-03T08:08:44;9.90;27.40
652;DHT22;310;48.490;9.200;2023-04-03T08:11:10;10.30;26.40
652;DHT22;310;48.490;9.200;2023-04-03T08:13:36;10.20;27.60
652;DHT22;310;48.490;9.200;2023-04-03T08:18:34;10.40;24.80
652;DHT22;310;48.490;9.200;2023-04-03T08:21:00;10.70;25.00
652;DHT22;310;48.490;9.200;2023-04-03T08:23:26;10.10;25.50
652;DHT22;310;48.490;9.200;2023-04-03T08:25:51;10.10;25.90
652;DHT22;310;48.490;9.200;2023-04-03T08:28:17;10.50;25.10
652;DHT22;310;48.490;9.200;2023-04-03T08:30:43;10.60;24.90
652;DHT22;310;48.490;9.200;2023-04-03T08:33:09;10.30;25.10
652;DHT22;310;48.490;9.200;2023-04-03T08:35:39;10.60;24.70
652;DHT22;310;48.490;9.200;2023-04-03T08:38:06;10.80;27.30
652;DHT22;310;48.490;9.200;2023-04-03T08:40:31;10.80;25.10
652;DHT22;310;48.490;9.200;2023-04-03T08:45:53;11.20;24.20
652;DHT22;310;48.490;9.200;2023-04-03T08:48:27;11.30;23.90
652;DHT22;310;48.490;9.200;2023-04-03T08:51:00;10.80;24.20
652;DHT22;310;48.490;9.200;2023-04-03T08:53:31;10.90;24.60
652;DHT22;310;48.490;9.200;2023-04-03T08:55:58;10.90;24.70
652;DHT22;310;48.490;9.200;2023-04-03T08:58:28;10.90;24.30
652;DHT22;310;48.490;9.200;2023-04-03T09:01:05;10.80;23.60
652;DHT22;310;48.490;9.200;2023-04-03T09:03:38;10.60;23.90
652;DHT22;310;48.490;9.200;2023-04-03T09:06:10;10.50;24.40
652;DHT22;310;48.490;9.200;2023-04-03T09:11:25;10.70;24.00
652;DHT22;310;48.490;9.200;2023-04-03T09:19:02;11.10;24.20
652;DHT22;310;48.490;9.200;2023-04-03T09:21:36;11.20;23.60
652;DHT22;310;48.490;9.200;2023-04-03T09:24:05;11.30;22.40
652;DHT22;310;48.490;9.200;2023-04-03T09:26:41;11.60;22.60
652;DHT22;310;48.490;9.200;2023-04-03T09:29:17;11.90;22.70
652;DHT22;310;48.490;9.200;2023-04-03T09:31:45;11.20;22.90
652;DHT22;310;48.490;9.200;2023-04-03T09:34:27;11.30;23.00
652;DHT22;310;48.490;9.200;2023-04-03T09:36:56;11.50;22.60
652;DHT22;310;48.490;9.200;2023-04-03T09:39:27;12.30;22.50
652;DHT22;310;48.490;9.200;2023-04-03T09:42:05;11.80;23.20
652;DHT22;310;48.490;9.200;2023-04-03T09:44:37;11.30;22.90
652;DHT22;310;48.490;9.200;2023-04-03T09:47:29;11.40;23.20
652;DHT22;310;48.490;9.200;2023-04-03T09:52:45;11.80;22.40
652;DHT22;310;48.490;9.200;2023-04-03T09:55:31;11.10;23.10
652;DHT22;310;48.490;9.200;2023-04-03T09:58:00;10.40;25.70
652;DHT22;310;48.490;9.200;2023-04-03T10:00:30;10.80;24.00
652;DHT22;310;48.490;9.200;2023-04-03T10:02:58;10.40;24.80
652;DHT22;310;48.490;9.200;2023-04-03T10:05:41;10.80;24.50
652;DHT22;310;48.490;9.200;2023-04-03T10:13:30;11.60;24.10
652;DHT22;310;48.490;9.200;2023-04-03T10:16:01;11.50;22.90
652;DHT22;310;48.490;9.200;2023-04-03T10:21:23;11.40;25.20
652;DHT22;310;48.490;9.200;2023-04-03T10:24:08;11.10;23.80
652;DHT22;310;48.490;9.200;2023-04-03T10:32:14;11.10;24.40
652;DHT22;310;48.490;9.200;2023-04-03T10:34:44;11.60;24.40
652;DHT22;310;48.490;9.200;2023-04-03T10:43:02;11.20;22.40
652;DHT22;310;48.490;9.200;2023-04-03T10:45:49;11.30;22.00
652;DHT22;310;48.490;9.200;2023-04-03T10:51:05;11.00;23.20
652;DHT22;310;48.490;9.200;2023-04-03T10:53:55;11.10;22.10
652;DHT22;310;48.490;9.200;2023-04-03T10:56:45;10.80;23.80
652;DHT22;310;48.490;9.200;2023-04-03T11:02:00;11.30;23.50
652;DHT22;310;48.490;9.200;2023-04-03T11:04:30;11.80;22.50
652;DHT22;310;48.490;9.200;2023-04-03T11:07:12;12.00;21.30
652;DHT22;310;48.490;9.200;2023-04-03T11:09:44;12.00;20.30
652;DHT22;310;48.490;9.200;2023-04-03T11:12:44;11.80;20.20
652;DHT22;310;48.490;9.200;2023-04-03T11:15:14;11.30;21.70
652;DHT22;310;48.490;9.200;2023-04-03T11:17:46;11.70;20.90
652;DHT22;310;48.490;9.200;2023-04-03T11:20:21;11.50;22.20
652;DHT22;310;48.490;9.200;2023-04-03T11:22:58;11.60;21.40
652;DHT22;310;48.490;9.200;2023-04-03T11:25:27;11.60;21.50
652;DHT22;310;48.490;9.200;2023-04-03T11:28:01;12.10;21.60
652;DHT22;310;48.490;9.200;2023-04-03T11:30:54;11.90;20.50
652;DHT22;310;48.490;9.200;2023-04-03T11:38:46;11.70;21.60
652;DHT22;310;48.490;9.200;2023-04-03T11:41:13;11.20;21.40
652;DHT22;310;48.490;9.200;2023-04-03T11:46:52;11.00;21.20
652;DHT22;310;48.490;9.200;2023-04-03T11:49:58;11.00;22.80
652;DHT22;310;48.490;9.200;2023-04-03T12:11:37;10.70;23.10
652;DHT22;310;48.490;9.200;2023-04-03T12:14:04;10.70;21.00
652;DHT22;310;48.490;9.200;2023-04-03T12:16:42;11.40;21.00
652;DHT22;310;48.490;9.200;2023-04-03T12:29:43;11.60;22.00
652;DHT22;310;48.490;9.200;2023-04-03T12:32:37;11.70;20.00
652;DHT22;310;48.490;9.200;2023-04-03T12:43:00;12.00;20.20
652;DHT22;310;48.490;9.200;2023-04-03T12:48:13;11.00;20.20
652;DHT22;310;48.490;9.200;2023-04-03T12:50:40;11.20;20.60
652;DHT22;310;48.490;9.200;2023-04-03T12:55:40;10.30;20.60
652;DHT22;310;48.490;9.200;2023-04-03T12:58:26;10.90;20.70
652;DHT22;310;48.490;9.200;2023-04-03T13:01:03;11.30;21.00
652;DHT22;310;48.490;9.200;2023-04-03T13:03:30;12.00;20.90
652;DHT22;310;48.490;9.200;2023-04-03T13:06:01;12.00;20.20
652;DHT22;310;48.490;9.200;2023-04-03T13:08:28;11.80;19.20
652;DHT22;310;48.490;9.200;2023-04-03T13:11:06;12.00;20.30
652;DHT22;310;48.490;9.200;2023-04-03T13:13:33;11.50;19.70
652;DHT22;310;48.490;9.200;2023-04-03T13:15:59;11.60;19.70
652;DHT22;310;48.490;9.200;2023-04-03T13:18:33;11.60;20.10
652;DHT22;310;48.490;9.200;2023-04-03T13:21:15;11.80;20.10
652;DHT22;310;48.490;9.200;2023-04-03T13:23:45;11.60;20.60
652;DHT22;310;48.490;9.200;2023-04-03T13:26:12;11.00;19.50
652;DHT22;310;48.490;9.200;2023-04-03T13:28:42;11.20;19.40
652;DHT22;310;48.490;9.200;2023-04-03T13:31:26;11.40;19.80
652;DHT22;310;48.490;9.200;2023-04-03T13:36:24;11.50;20.70
652;DHT22;310;48.490;9.200;2023-04-03T13:39:23;11.70;19.60
652;DHT22;310;48.490;9.200;2023-04-03T13:41:52;11.70;19.30
652;DHT22;310;48.490;9.200;2023-04-03T13:46:44;11.20;19.70
652;DHT22;310;48.490;9.200;2023-04-03T13:51:56;11.10;19.60
652;DHT22;310;48.490;9.200;2023-04-03T13:54:34;10.80;19.70
652;DHT22;310;48.490;9.200;2023-04-03T13:57:01;10.50;21.00
652;DHT22;310;48.490;9.200;2023-04-03T13:59:33;10.50;21.20
652;DHT22;310;48.490;9.200;2023-04-03T14:04:30;10.40;20.40
652;DHT22;310;48.490;9.200;2023-04-03T14:06:57;10.20;21.30
652;DHT22;310;48.490;9.200;2023-04-03T14:09:25;10.70;20.00
652;DHT22;310;48.490;9.200;2023-04-03T14:11:57;10.80;19.80
652;DHT22;310;48.490;9.200;2023-04-03T14:14:27;11.40;20.40
652;DHT22;310;48.490;9.200;2023-04-03T14:16:58;11.30;20.20
652;DHT22;310;48.490;9.200;2023-04-03T14:19:31;11.60;20.00
652;DHT22;310;48.490;9.200;2023-04-03T14:21:59;11.80;21.70
652;DHT22;310;48.490;9.200;2023-04-03T14:24:25;12.30;19.20
652;DHT22;310;48.490;9.200;2023-04-03T14:26:54;12.20;18.90
652;DHT22;310;48.490;9.200;2023-04-03T14:29:21;12.20;20.40
652;DHT22;310;48.490;9.200;2023-04-03T14:31:49;12.30;18.30
652;DHT22;310;48.490;9.200;2023-04-03T14:34:16;12.10;19.40
652;DHT22;310;48.490;9.200;2023-04-03T14:36:43;12.30;20.50
652;DHT22;310;48.490;9.200;2023-04-03T14:39:15;12.60;18.70
652;DHT22;310;48.490;9.200;2023-04-03T14:41:42;12.30;19.30
652;DHT22;310;48.490;9.200;2023-04-03T14:44:08;12.30;18.60
652;DHT22;310;48.490;9.200;2023-04-03T14:46:40;12.40;18.50
652;DHT22;310;48.490;9.200;2023-04-03T14:49:15;12.50;18.30
652;DHT22;310;48.490;9.200;2023-04-03T14:51:44;12.30;17.90
652;DHT22;310;48.490;9.200;2023-04-03T14:54:16;12.10;18.30
652;DHT22;310;48.490;9.200;2023-04-03T14:56:42;12.00;18.60
652;DHT22;310;48.490;9.200;2023-04-03T14:59:11;11.60;20.00
652;DHT22;310;48.490;9.200;2023-04-03T15:01:38;11.90;19.10
652;DHT22;310;48.490;9.200;2023-04-03T15:04:23;11.60;19.00
652;DHT22;310;48.490;9.200;2023-04-03T15:06:49;11.50;17.70
652;DHT22;310;48.490;9.200;2023-04-03T15:09:25;11.30;19.10
652;DHT22;310;48.490;9.200;2023-04-03T15:11:52;11.50;18.30
652;DHT22;310;48.490;9.200;2023-04-03T15:14:19;11.50;17.70
652;DHT22;310;48.490;9.200;2023-04-03T15:16:44;11.40;18.10
652;DHT22;310;48.490;9.200;2023-04-03T15:19:11;10.90;20.40
652;DHT22;310;48.490;9.200;2023-04-03T15:21:37;11.40;19.40
652;DHT22;310;48.490;9.200;2023-04-03T15:24:03;11.80;18.50
652;DHT22;310;48.490;9.200;2023-04-03T15:26:29;11.80;19.20
652;DHT22;310;48.490;9.200;2023-04-03T15:28:57;11.90;17.80
652;DHT22;310;48.490;9.200;2023-04-03T15:31:24;12.30;18.40
652;DHT22;310;48.490;9.200;2023-04-03T15:33:50;11.40;18.20
652;DHT22;310;48.490;9.200;2023-04-03T15:36:15;11.90;18.90
652;DHT22;310;48.490;9.200;2023-04-03T15:38:41;12.20;18.50
652;DHT22;310;48.490;9.200;2023-04-03T15:41:07;11.90;18.00
652;DHT22;310;48.490;9.200;2023-04-03T15:43:35;11.70;17.80
652;DHT22;310;48.490;9.200;2023-04-03T15:46:01;11.30;18.20
652;DHT22;310;48.490;9.200;2023-04-03T15:48:27;11.40;18.40
652;DHT22;310;48.490;9.200;2023-04-03T15:50:53;11.10;19.00
652;DHT22;310;48.490;9.200;2023-04-03T15:53:19;11.50;19.60
652;DHT22;310;48.490;9.200;2023-04-03T15:55:45;11.60;18.70
652;DHT22;310;48.490;9.200;2023-04-03T15:58:11;11.60;17.70
652;DHT22;310;48.490;9.200;2023-04-03T16:00:37;11.60;19.10
652;DHT22;310;48.490;9.200;2023-04-03T16:03:09;11.70;20.00
652;DHT22;310;48.490;9.200;2023-04-03T16:05:36;12.10;17.30
652;DHT22;310;48.490;9.200;2023-04-03T16:08:02;11.70;17.90
652;DHT22;310;48.490;9.200;2023-04-03T16:10:28;12.30;18.00
652;DHT22;310;48.490;9.200;2023-04-03T16:12:54;12.20;17.90
652;DHT22;310;48.490;9.200;2023-04-03T16:15:20;12.10;17.80
652;DHT22;310;48.490;9.200;2023-04-03T16:17:46;11.90;18.10
652;DHT22;310;48.490;9.200;2023-04-03T16:20:14;11.70;17.70
652;DHT22;310;48.490;9.200;2023-04-03T16:22:40;11.50;17.90
652;DHT22;310;48.490;9.200;2023-04-03T16:25:07;11.70;18.10
652;DHT22;310;48.490;9.200;2023-04-03T16:27:33;11.60;17.30
652;DHT22;310;48.490;9.200;2023-04-03T16:29:59;11.70;17.20
652;DHT22;310;48.490;9.200;2023-04-03T16:32:27;11.40;17.60
652;DHT22;310;48.490;9.200;2023-04-03T16:34:54;11.40;17.80
652;DHT22;310;48.490;9.200;2023-04-03T16:37:20;11.90;17.70
652;DHT22;310;48.490;9.200;2023-04-03T16:39:46;11.60;17.70
652;DHT22;310;48.490;9.200;2023-04-03T16:42:11;11.80;18.70
652;DHT22;310;48.490;9.200;2023-04-03T16:44:37;11.60;16.80
652;DHT22;310;48.490;9.200;2023-04-03T16:47:05;11.20;17.40
652;DHT22;310;48.490;9.200;2023-04-03T16:49:31;11.30;18.60
652;DHT22;310;48.490;9.200;2023-04-03T16:52:00;11.40;17.20
652;DHT22;310;48.490;9.200;2023-04-03T16:54:26;11.30;17.10
652;DHT22;310;48.490;9.200;2023-04-03T16:56:52;11.10;17.20
652;DHT22;310;48.490;9.200;2023-04-03T16:59:18;10.80;18.20
652;DHT22;310;48.490;9.200;2023-04-03T17:01:43;10.50;17.80
652;DHT22;310;48.490;9.200;2023-04-03T17:04:09;10.80;17.90
652;DHT22;310;48.490;9.200;2023-04-03T17:06:35;10.40;17.50
652;DHT22;310;48.490;9.200;2023-04-03T17:09:00;10.50;17.70
652;DHT22;310;48.490;9.200;2023-04-03T17:11:27;10.60;18.90
652;DHT22;310;48.490;9.200;2023-04-03T17:13:53;10.80;17.10
652;DHT22;310;48.490;9.200;2023-04-03T17:16:19;10.80;17.50
652;DHT22;310;48.490;9.200;2023-04-03T17:18:45;10.70;17.80
652;DHT22;310;48.490;9.200;2023-04-03T17:21:12;10.50;17.30
652;DHT22;310;48.490;9.200;2023-04-03T17:23:40;10.60;17.80
652;DHT22;310;48.490;9.200;2023-04-03T17:26:06;10.80;18.10
652;DHT22;310;48.490;9.200;2023-04-03T17:28:32;10.80;17.30
652;DHT22;310;48.490;9.200;2023-04-03T17:30:59;10.80;18.00
652;DHT22;310;48.490;9.200;2023-04-03T17:33:26;10.50;17.50
652;DHT22;310;48.490;9.200;2023-04-03T17:35:56;10.50;17.50
652;DHT22;310;48.490;9.200;2023-04-03T17:38:21;10.80;17.50
652;DHT22;310;48.490;9.200;2023-04-03T17:40:47;10.80;17.60
652;DHT22;310;48.490;9.200;2023-04-03T17:43:12;10.60;17.80
652;DHT22;310;48.490;9.200;2023-04-03T17:45:39;10.30;18.40
652;DHT22;310;48.490;9.200;2023-04-03T17:48:05;10.20;18.40
652;DHT22;310;48.490;9.200;2023-04-03T17:50:31;10.40;18.60
652;DHT22;310;48.490;9.200;2023-04-03T17:52:56;10.40;18.10
652;DHT22;310;48.490;9.200;2023-04-03T17:55:22;10.30;18.40
652;DHT22;310;48.490;9.200;2023-04-03T17:57:48;10.40;18.90
652;DHT22;310;48.490;9.200;2023-04-03T18:00:14;10.30;18.20
652;DHT22;310;48.490;9.200;2023-04-03T18:02:41;10.30;18.00
652;DHT22;310;48.490;9.200;2023-04-03T18:05:08;10.30;19.80
652;DHT22;310;48.490;9.200;2023-04-03T18:07:36;10.30;18.30
652;DHT22;310;48.490;9.200;2023-04-03T18:10:02;10.20;18.90
652;DHT22;310;48.490;9.200;2023-04-03T18:12:30;10.00;19.30
652;DHT22;310;48.490;9.200;2023-04-03T18:14:58;10.20;19.00
652;DHT22;310;48.490;9.200;2023-04-03T18:17:25;10.20;18.50
652;DHT22;310;48.490;9.200;2023-04-03T18:19:53;10.40;18.70
652;DHT22;310;48.490;9.200;2023-04-03T18:22:22;10.10;18.90
652;DHT22;310;48.490;9.200;2023-04-03T18:24:49;10.10;18.90
652;DHT22;310;48.490;9.200;2023-04-03T18:27:18;10.20;19.40
652;DHT22;310;48.490;9.200;2023-04-03T18:29:46;10.20;20.30
652;DHT22;310;48.490;9.200;2023-04-03T18:32:15;10.20;20.00
652;DHT22;310;48.490;9.200;2023-04-03T18:34:42;10.20;19.00
652;DHT22;310;48.490;9.200;2023-04-03T18:37:07;10.00;20.50